This is the latest recevied weather packets stored in our database for station/object AF1E. If no packets are shown the sender has not sent any weather packets the latest 10 day(s).
| Time | Temp. | Humidity | Pressure | Rain* | Wind** | Luminosity | Snow |
|---|---|---|---|---|---|---|---|
| 1777511717 | 21.11° C | 68% | 1007.2 hPa | 0 mm | - | - | - |
| 1777508717 | 20.56° C | 80% | 1006.6 hPa | 0 mm | - | - | - |
| 1777507517 | 21.11° C | 79% | 1006.3 hPa | 0 mm | - | - | - |
| 1777500316 | 24.44° C | 68% | 1005.8 hPa | 0 mm | - | - | - |
| 1777494916 | 25° C | 66% | 1006.4 hPa | 0 mm | - | - | - |
| 1777494316 | 25° C | 65% | 1006.4 hPa | 0 mm | - | - | - |
| 1777493116 | 25.56° C | 62% | 1006.7 hPa | 0 mm | - | - | - |
| 1777491916 | 25.56° C | 61% | 1007 hPa | 0 mm | - | - | - |
| 1777488936 | 26.11° C | 59% | 1007.5 hPa | 0 mm | - | - | - |
| 1777488316 | 26.67° C | 63% | 1007.9 hPa | 0 mm | - | - | - |
| 1777483516 | 21.67° C | 75% | 1009.5 hPa | 0 mm | - | - | - |
| 1777478716 | 17.78° C | 88% | 1010.7 hPa | 0 mm | - | - | - |
| 1777476916 | 16.67° C | 91% | 1011 hPa | 0 mm | - | - | - |
| 1777470336 | 16.11° C | 93% | 1011 hPa | 0 mm | - | - | - |
| 1777462537 | 15° C | 94% | 1011.2 hPa | 0 mm | - | - | - |
| 1777452918 | 14.44° C | 95% | 1012.5 hPa | 0 mm | - | - | - |
| 1777444517 | 13.89° C | 94% | 1012.9 hPa | 0 mm | - | - | - |
| 1777443317 | 13.89° C | 94% | 1013.1 hPa | 0 mm | - | - | - |
| 1777442717 | 13.89° C | 94% | 1013.6 hPa | 0 mm | - | - | - |
| 1777441517 | 13.89° C | 94% | 1014.4 hPa | 0 mm | - | - | - |
| 1777440317 | 14.44° C | 94% | 1014.1 hPa | 0 mm | - | - | - |
| 1777434917 | 14.44° C | 93% | 1015.1 hPa | 0 mm | - | - | - |
| 1777429517 | 14.44° C | 91% | 1015.9 hPa | 0 mm | - | - | - |
| 1777425917 | 15.56° C | 89% | 1016.3 hPa | 0 mm | - | - | - |
| 1777425317 | 15.56° C | 89% | 1015.9 hPa | 0 mm | - | - | - |
* Rain latest hour (hover to see other rain measurements)
** Current wind speed in m/s (hover to see current wind gust speed)